createdAt,value
2017-03-06T04:00:57.165Z,999.55
2017-03-06T04:01:22.721Z,999.56
2017-03-06T04:01:48.281Z,999.57
2017-03-06T04:02:13.904Z,999.58
2017-03-06T04:02:39.480Z,999.56
2017-03-06T04:03:05.091Z,999.56
2017-03-06T04:03:30.658Z,999.59
2017-03-06T04:03:56.242Z,999.57
2017-03-06T04:04:21.851Z,999.55
2017-03-06T04:04:47.423Z,999.62
2017-03-06T04:05:12.991Z,999.61
2017-03-06T04:05:38.569Z,999.57
2017-03-06T04:06:04.170Z,999.58
2017-03-06T04:06:29.727Z,999.6
2017-03-06T04:06:55.291Z,999.58
2017-03-06T04:07:20.942Z,999.58
2017-03-06T04:07:46.561Z,999.6
2017-03-06T04:08:12.126Z,999.56
2017-03-06T04:08:37.672Z,999.62
2017-03-06T04:09:03.330Z,999.56
2017-03-06T04:09:28.890Z,999.59
2017-03-06T04:09:54.445Z,999.59
2017-03-06T04:10:20.137Z,999.59
2017-03-06T04:10:45.765Z,999.58
2017-03-06T04:11:11.568Z,999.56
2017-03-06T04:11:37.142Z,999.55
2017-03-06T04:12:02.731Z,999.61
2017-03-06T04:12:28.308Z,999.57
2017-03-06T04:12:53.873Z,999.6
2017-03-06T04:13:19.448Z,999.56
2017-03-06T04:13:45.612Z,999.57
2017-03-06T04:14:11.180Z,999.59
2017-03-06T04:14:36.737Z,999.57
2017-03-06T04:15:02.308Z,999.58
2017-03-06T04:15:27.879Z,999.56
2017-03-06T04:15:53.420Z,999.58
2017-03-06T04:16:19.002Z,999.56
2017-03-06T04:16:44.555Z,999.59
2017-03-06T04:17:10.108Z,999.57
2017-03-06T04:17:35.664Z,999.58
2017-03-06T04:18:01.261Z,999.61
2017-03-06T04:18:26.833Z,999.57
2017-03-06T04:18:52.520Z,999.57
2017-03-06T04:19:18.082Z,999.56
2017-03-06T04:19:43.661Z,999.58
2017-03-06T04:20:09.229Z,999.59
2017-03-06T04:20:34.777Z,999.57
2017-03-06T04:21:00.331Z,999.64
2017-03-06T04:21:25.919Z,999.61
2017-03-06T04:21:51.481Z,999.58
2017-03-06T04:22:17.049Z,999.61
2017-03-06T04:22:42.615Z,999.59
2017-03-06T04:23:08.198Z,999.62
2017-03-06T04:23:33.791Z,999.59
2017-03-06T04:23:59.360Z,999.58
2017-03-06T04:24:25.013Z,999.62
2017-03-06T04:24:50.615Z,999.6
2017-03-06T04:25:16.172Z,999.62
2017-03-06T04:25:41.728Z,999.64
2017-03-06T04:26:08.212Z,999.62
2017-03-06T04:26:32.919Z,999.64
2017-03-06T04:26:58.475Z,999.6
2017-03-06T04:27:24.040Z,999.63
2017-03-06T04:27:49.626Z,999.61
2017-03-06T04:28:15.203Z,999.61
2017-03-06T04:28:40.762Z,999.65
2017-03-06T04:29:06.400Z,999.65
2017-03-06T04:29:31.979Z,999.62
2017-03-06T04:29:57.527Z,999.64
2017-03-06T04:30:23.075Z,999.66
2017-03-06T04:30:48.633Z,999.66
2017-03-06T04:31:14.375Z,999.63
2017-03-06T04:31:39.942Z,999.66
2017-03-06T04:32:05.513Z,999.67
2017-03-06T04:32:31.068Z,999.66
2017-03-06T04:32:56.645Z,999.67
2017-03-06T04:33:22.221Z,999.65
2017-03-06T04:33:47.843Z,999.67
2017-03-06T04:34:13.390Z,999.69
2017-03-06T04:34:38.964Z,999.66
2017-03-06T04:35:04.548Z,999.68
2017-03-06T04:35:30.137Z,999.71
2017-03-06T04:35:55.704Z,999.68
2017-03-06T04:36:21.272Z,999.67
2017-03-06T04:36:46.831Z,999.68
2017-03-06T04:37:12.413Z,999.72
2017-03-06T04:37:37.973Z,999.72
2017-03-06T04:38:03.536Z,999.69
2017-03-06T04:38:29.099Z,999.68
2017-03-06T04:38:54.661Z,999.68
2017-03-06T04:39:20.242Z,999.68
2017-03-06T04:39:45.810Z,999.66
2017-03-06T04:40:11.372Z,999.66
2017-03-06T04:40:37.035Z,999.62
2017-03-06T04:41:02.598Z,999.64
2017-03-06T04:41:28.164Z,999.68
2017-03-06T04:41:53.732Z,999.69
2017-03-06T04:42:19.332Z,999.63
2017-03-06T04:42:44.891Z,999.65
2017-03-06T04:43:10.453Z,999.65
2017-03-06T04:43:36.044Z,999.63
2017-03-06T04:44:01.604Z,999.63
2017-03-06T04:44:27.169Z,999.66
2017-03-06T04:44:52.722Z,999.67
2017-03-06T04:45:18.283Z,999.65
2017-03-06T04:45:43.864Z,999.64
2017-03-06T04:46:09.418Z,999.69
2017-03-06T04:46:35.061Z,999.69
2017-03-06T04:47:00.625Z,999.66
2017-03-06T04:47:26.182Z,999.66
2017-03-06T04:47:51.883Z,999.71
2017-03-06T04:48:17.443Z,999.69
2017-03-06T04:48:43.005Z,999.7
2017-03-06T04:49:08.564Z,999.68
2017-03-06T04:49:34.144Z,999.66
2017-03-06T04:49:59.705Z,999.64
2017-03-06T04:50:25.274Z,999.66
2017-03-06T04:50:50.832Z,999.68
2017-03-06T04:51:16.416Z,999.68
2017-03-06T04:51:42.032Z,999.72
2017-03-06T04:52:07.781Z,999.71
2017-03-06T04:52:34.229Z,999.71
2017-03-06T04:52:58.964Z,999.68
2017-03-06T04:53:25.247Z,999.68
2017-03-06T04:53:50.862Z,999.67
2017-03-06T04:54:16.448Z,999.67
2017-03-06T04:54:42.034Z,999.65
2017-03-06T04:55:07.593Z,999.71
2017-03-06T04:55:33.160Z,999.67
2017-03-06T04:55:58.724Z,999.65
2017-03-06T04:56:24.290Z,999.69
2017-03-06T04:56:49.844Z,999.68
2017-03-06T04:57:15.395Z,999.7
2017-03-06T04:57:40.968Z,999.72
2017-03-06T04:58:07.232Z,999.71
2017-03-06T04:58:32.096Z,999.71
2017-03-06T04:58:57.653Z,999.72
2017-03-06T04:59:23.202Z,999.71
2017-03-06T04:59:48.774Z,999.71
2017-03-06T05:00:14.345Z,999.7
2017-03-06T05:00:39.900Z,999.71
2017-03-06T05:01:05.461Z,999.71
2017-03-06T05:01:31.017Z,999.7
2017-03-06T05:01:56.567Z,999.72
2017-03-06T05:02:22.203Z,999.73
2017-03-06T05:02:47.768Z,999.74
2017-03-06T05:03:13.329Z,999.72
2017-03-06T05:03:38.896Z,999.7
2017-03-06T05:04:04.478Z,999.74
2017-03-06T05:04:30.089Z,999.74
2017-03-06T05:04:55.647Z,999.73
2017-03-06T05:05:21.264Z,999.78
2017-03-06T05:05:46.842Z,999.72
2017-03-06T05:06:12.452Z,999.73
2017-03-06T05:06:38.024Z,999.73
2017-03-06T05:07:03.662Z,999.76
2017-03-06T05:07:29.244Z,999.74
2017-03-06T05:07:54.818Z,999.71
2017-03-06T05:08:20.384Z,999.75
2017-03-06T05:08:45.992Z,999.74
2017-03-06T05:09:11.576Z,999.79
2017-03-06T05:09:37.141Z,999.81
2017-03-06T05:10:02.697Z,999.77
2017-03-06T05:10:28.289Z,999.8
2017-03-06T05:10:53.840Z,999.75
2017-03-06T05:11:19.410Z,999.83
2017-03-06T05:11:44.965Z,999.81
2017-03-06T05:12:10.526Z,999.79
2017-03-06T05:12:36.159Z,999.81
2017-03-06T05:13:01.780Z,999.8
2017-03-06T05:13:27.434Z,999.77
2017-03-06T05:13:53.010Z,999.77
2017-03-06T05:14:18.578Z,999.8
2017-03-06T05:14:44.247Z,999.75
2017-03-06T05:15:09.819Z,999.8
2017-03-06T05:15:35.398Z,999.74
2017-03-06T05:16:01.741Z,999.77
2017-03-06T05:16:26.663Z,999.81
2017-03-06T05:16:52.953Z,999.79
2017-03-06T05:17:18.646Z,999.76
2017-03-06T05:17:44.208Z,999.73
2017-03-06T05:18:09.798Z,999.77
2017-03-06T05:18:35.350Z,999.76
2017-03-06T05:19:00.926Z,999.79
2017-03-06T05:19:26.914Z,999.81
2017-03-06T05:19:52.483Z,999.78
2017-03-06T05:20:18.036Z,999.77
2017-03-06T05:20:43.591Z,999.79
2017-03-06T05:21:09.202Z,999.77
2017-03-06T05:21:34.768Z,999.77
2017-03-06T05:22:00.332Z,999.78
2017-03-06T05:22:25.893Z,999.77
2017-03-06T05:22:51.464Z,999.75
2017-03-06T05:23:17.514Z,999.74
2017-03-06T05:23:43.080Z,999.77
2017-03-06T05:24:08.633Z,999.75
2017-03-06T05:24:34.173Z,999.77
2017-03-06T05:24:59.917Z,999.81
2017-03-06T05:25:25.470Z,999.8
2017-03-06T05:25:51.032Z,999.82
2017-03-06T05:26:16.594Z,999.79
2017-03-06T05:26:42.182Z,999.79
2017-03-06T05:27:08.243Z,999.78
2017-03-06T05:27:33.461Z,999.8
2017-03-06T05:27:59.128Z,999.79
2017-03-06T05:28:24.724Z,999.78
2017-03-06T05:28:50.277Z,999.79
2017-03-06T05:29:15.846Z,999.8
2017-03-06T05:29:41.425Z,999.8
2017-03-06T05:30:07.036Z,999.75
2017-03-06T05:30:32.579Z,999.79
2017-03-06T05:30:58.148Z,999.78
2017-03-06T05:31:23.704Z,999.79
2017-03-06T05:31:49.268Z,999.78
2017-03-06T05:32:14.827Z,999.78
2017-03-06T05:32:40.385Z,999.79
2017-03-06T05:33:05.954Z,999.79
2017-03-06T05:33:31.520Z,999.81
2017-03-06T05:33:57.132Z,999.81
2017-03-06T05:34:22.696Z,999.8
2017-03-06T05:34:48.357Z,999.77
2017-03-06T05:35:13.923Z,999.8
2017-03-06T05:35:39.614Z,999.75
2017-03-06T05:36:05.176Z,999.82
2017-03-06T05:36:30.753Z,999.79
2017-03-06T05:36:56.322Z,999.75
2017-03-06T05:37:21.905Z,999.77
2017-03-06T05:37:47.470Z,999.77
2017-03-06T05:38:13.051Z,999.81
2017-03-06T05:38:38.615Z,999.79
2017-03-06T05:39:04.182Z,999.75
2017-03-06T05:39:29.755Z,999.78
2017-03-06T05:39:55.333Z,999.76
2017-03-06T05:40:20.921Z,999.77
2017-03-06T05:40:46.520Z,999.72
2017-03-06T05:41:12.074Z,999.77
2017-03-06T05:41:37.695Z,999.79
2017-03-06T05:42:03.258Z,999.75
2017-03-06T05:42:28.860Z,999.8
2017-03-06T05:42:54.432Z,999.78
2017-03-06T05:43:20.005Z,999.8
2017-03-06T05:43:45.571Z,999.77
2017-03-06T05:44:11.127Z,999.79
2017-03-06T05:44:36.698Z,999.8
2017-03-06T05:45:02.271Z,999.77
2017-03-06T05:45:27.837Z,999.8
2017-03-06T05:45:54.034Z,999.82
2017-03-06T05:46:19.607Z,999.79
2017-03-06T05:46:45.173Z,999.81
2017-03-06T05:47:10.749Z,999.84
2017-03-06T05:47:36.337Z,999.81
2017-03-06T05:48:01.920Z,999.78
2017-03-06T05:48:27.484Z,999.81
2017-03-06T05:48:53.053Z,999.82
2017-03-06T05:49:18.651Z,999.8
2017-03-06T05:49:44.218Z,999.84
2017-03-06T05:50:09.783Z,999.8
2017-03-06T05:50:35.358Z,999.82
2017-03-06T05:51:54.484Z,999.83
2017-03-06T05:52:20.038Z,999.85
2017-03-06T05:52:45.762Z,999.84
2017-03-06T05:53:11.330Z,999.83
2017-03-06T05:53:36.882Z,999.83
2017-03-06T05:54:02.463Z,999.84
2017-03-06T05:54:28.030Z,999.81
2017-03-06T05:54:53.596Z,999.82
2017-03-06T05:55:19.203Z,999.83
2017-03-06T05:55:44.783Z,999.85
2017-03-06T05:56:10.367Z,999.89
2017-03-06T05:56:35.923Z,999.86
2017-03-06T05:57:02.372Z,999.88
2017-03-06T05:57:27.041Z,999.86
2017-03-06T05:57:52.627Z,999.9
2017-03-06T05:58:18.218Z,999.9
2017-03-06T05:58:43.792Z,999.87
2017-03-06T05:59:09.520Z,999.9
2017-03-06T05:59:35.167Z,999.93
2017-03-06T06:00:00.753Z,999.9
2017-03-06T06:00:26.287Z,999.9
2017-03-06T06:00:51.871Z,999.88
2017-03-06T06:01:17.454Z,999.9
2017-03-06T06:01:43.053Z,999.88
2017-03-06T06:02:08.612Z,999.91
2017-03-06T06:02:34.174Z,999.9
2017-03-06T06:02:59.738Z,999.89
2017-03-06T06:03:25.344Z,999.91
2017-03-06T06:03:50.896Z,999.94
2017-03-06T06:04:16.494Z,999.93
2017-03-06T06:04:42.058Z,999.92
2017-03-06T06:05:07.617Z,999.94
2017-03-06T06:05:33.204Z,999.93
2017-03-06T06:05:58.777Z,999.87
2017-03-06T06:06:24.319Z,999.9
2017-03-06T06:06:49.887Z,999.9
2017-03-06T06:07:15.450Z,999.89
2017-03-06T06:07:41.875Z,999.93
2017-03-06T06:08:06.579Z,999.9
2017-03-06T06:08:32.715Z,999.89
2017-03-06T06:08:58.275Z,999.89
2017-03-06T06:09:23.861Z,999.92
2017-03-06T06:09:49.455Z,999.9
2017-03-06T06:10:15.041Z,999.9
2017-03-06T06:10:40.593Z,999.92
2017-03-06T06:11:06.140Z,999.88
2017-03-06T06:11:31.774Z,999.9
2017-03-06T06:11:57.334Z,999.91
2017-03-06T06:12:22.987Z,999.89
2017-03-06T06:12:48.562Z,999.91
2017-03-06T06:13:14.878Z,999.94
2017-03-06T06:13:39.690Z,999.93
2017-03-06T06:14:58.681Z,999.89
2017-03-06T06:15:24.244Z,999.91
2017-03-06T06:15:49.815Z,999.94
2017-03-06T06:16:15.405Z,999.94
2017-03-06T06:16:41.033Z,999.92
2017-03-06T06:17:06.552Z,999.89
2017-03-06T06:17:32.123Z,999.91
2017-03-06T06:17:57.684Z,999.91
2017-03-06T06:18:23.248Z,999.94
2017-03-06T06:18:48.847Z,999.9
2017-03-06T06:19:14.406Z,999.97
2017-03-06T06:19:39.967Z,999.94
2017-03-06T06:20:06.215Z,999.91
2017-03-06T06:20:31.770Z,999.91
2017-03-06T06:20:57.479Z,999.9
2017-03-06T06:21:23.049Z,999.94
2017-03-06T06:21:48.609Z,999.88
2017-03-06T06:22:14.185Z,999.88
2017-03-06T06:22:39.754Z,999.89
2017-03-06T06:23:05.347Z,999.9
2017-03-06T06:23:30.915Z,999.87
2017-03-06T06:23:56.483Z,999.91
2017-03-06T06:24:22.082Z,999.88
2017-03-06T06:24:47.652Z,999.87
2017-03-06T06:25:13.212Z,999.88
2017-03-06T06:25:38.785Z,999.85
2017-03-06T06:26:04.351Z,999.86
2017-03-06T06:26:30.003Z,999.87
2017-03-06T06:26:55.570Z,999.85
2017-03-06T06:27:21.165Z,999.85
2017-03-06T06:27:46.703Z,999.84
2017-03-06T06:28:12.265Z,999.88
2017-03-06T06:28:37.834Z,999.86
2017-03-06T06:29:03.385Z,999.86
2017-03-06T06:29:28.943Z,999.88
2017-03-06T06:29:54.573Z,999.84
2017-03-06T06:30:20.117Z,999.85
2017-03-06T06:30:45.753Z,999.85
2017-03-06T06:31:11.343Z,999.86
2017-03-06T06:31:36.934Z,999.87
2017-03-06T06:32:02.591Z,999.86
2017-03-06T06:32:28.156Z,999.84
2017-03-06T06:32:53.850Z,999.84
2017-03-06T06:33:19.412Z,999.89
2017-03-06T06:33:45.881Z,999.87
2017-03-06T06:34:12.315Z,999.86
2017-03-06T06:34:37.013Z,999.9
2017-03-06T06:35:02.571Z,999.93
2017-03-06T06:35:28.134Z,999.88
2017-03-06T06:35:53.794Z,999.88
2017-03-06T06:36:19.382Z,999.87
2017-03-06T06:36:44.953Z,999.9
2017-03-06T06:37:10.521Z,999.87
2017-03-06T06:37:36.095Z,999.87
2017-03-06T06:38:01.671Z,999.92
2017-03-06T06:38:27.256Z,999.89
2017-03-06T06:38:52.819Z,999.91
2017-03-06T06:39:18.369Z,999.91
2017-03-06T06:39:43.926Z,999.92
2017-03-06T06:40:09.498Z,999.91
2017-03-06T06:40:35.053Z,999.95
2017-03-06T06:41:00.616Z,999.96
2017-03-06T06:41:26.196Z,999.93
2017-03-06T06:41:51.757Z,999.89
2017-03-06T06:42:17.323Z,999.96
2017-03-06T06:42:42.885Z,999.93
2017-03-06T06:43:08.451Z,999.94
2017-03-06T06:43:34.016Z,999.96
2017-03-06T06:43:59.600Z,999.91
2017-03-06T06:44:25.161Z,999.95
2017-03-06T06:44:50.819Z,999.92
2017-03-06T06:45:16.380Z,999.94
2017-03-06T06:45:41.953Z,999.91
2017-03-06T06:46:07.640Z,999.95
2017-03-06T06:46:33.211Z,999.92
2017-03-06T06:46:58.774Z,999.95
2017-03-06T06:47:24.362Z,999.96
2017-03-06T06:47:49.942Z,999.92
2017-03-06T06:48:15.514Z,999.95
2017-03-06T06:48:41.071Z,999.93
2017-03-06T06:49:06.636Z,999.95
2017-03-06T06:49:32.210Z,999.94
2017-03-06T06:49:57.841Z,999.95
2017-03-06T06:50:23.393Z,999.92
2017-03-06T06:50:48.965Z,999.95
2017-03-06T06:51:14.592Z,999.95
2017-03-06T06:51:40.164Z,999.94
2017-03-06T06:52:05.724Z,999.93
2017-03-06T06:52:31.297Z,999.91
2017-03-06T06:52:56.917Z,999.96
2017-03-06T06:53:22.492Z,999.96
2017-03-06T06:53:48.034Z,999.93
2017-03-06T06:54:13.609Z,999.92
2017-03-06T06:54:39.185Z,999.94
2017-03-06T06:55:04.809Z,999.91
2017-03-06T06:55:30.334Z,999.92
2017-03-06T06:55:55.928Z,999.95
2017-03-06T06:56:21.500Z,999.92
2017-03-06T06:56:47.073Z,999.93
2017-03-06T06:57:12.640Z,999.93
2017-03-06T06:57:38.214Z,999.97
2017-03-06T06:58:03.777Z,999.99
2017-03-06T06:58:29.353Z,999.97
2017-03-06T06:58:54.911Z,999.91
2017-03-06T06:59:20.483Z,999.95
2017-03-06T06:59:46.041Z,999.94
2017-03-06T07:00:11.621Z,999.93
2017-03-06T07:00:37.181Z,999.93
2017-03-06T07:01:35.562Z,999.91
2017-03-06T07:02:01.132Z,999.95
2017-03-06T07:02:26.690Z,999.94
2017-03-06T07:02:52.257Z,999.95
2017-03-06T07:03:17.806Z,999.94
2017-03-06T07:03:43.371Z,999.92
2017-03-06T07:04:08.941Z,999.95
2017-03-06T07:04:34.497Z,999.89
2017-03-06T07:05:00.102Z,999.92
2017-03-06T07:05:25.686Z,999.88
2017-03-06T07:05:51.340Z,999.92
2017-03-06T07:06:16.896Z,999.95
2017-03-06T07:06:42.451Z,999.92
2017-03-06T07:07:08.005Z,999.92
2017-03-06T07:07:33.574Z,999.87
2017-03-06T07:07:59.129Z,999.93
2017-03-06T07:08:24.696Z,999.91
2017-03-06T07:08:50.270Z,999.94
2017-03-06T07:09:15.850Z,999.92
2017-03-06T07:09:41.405Z,999.92
2017-03-06T07:10:06.982Z,999.92
2017-03-06T07:10:32.516Z,999.91
2017-03-06T07:10:58.057Z,999.96
2017-03-06T07:11:23.614Z,999.96
2017-03-06T07:11:49.176Z,999.98
2017-03-06T07:12:14.715Z,999.99
2017-03-06T07:12:40.267Z,999.97
2017-03-06T07:13:05.954Z,999.96
2017-03-06T07:13:31.532Z,1000
2017-03-06T07:13:57.123Z,1000
2017-03-06T07:14:22.667Z,1000
2017-03-06T07:14:48.197Z,999.98
2017-03-06T07:15:13.729Z,999.99
2017-03-06T07:15:39.279Z,999.98
2017-03-06T07:16:04.879Z,999.99
2017-03-06T07:16:30.441Z,999.95
2017-03-06T07:16:56.012Z,999.98
2017-03-06T07:17:21.574Z,999.95
2017-03-06T07:17:47.165Z,999.97
2017-03-06T07:18:12.726Z,999.99
2017-03-06T07:18:38.270Z,999.96
2017-03-06T07:19:03.828Z,999.97
2017-03-06T07:19:29.402Z,1000
2017-03-06T07:19:54.951Z,999.98
2017-03-06T07:20:20.510Z,999.97
2017-03-06T07:20:46.071Z,999.97
2017-03-06T07:21:11.638Z,999.95
2017-03-06T07:21:37.937Z,999.97
2017-03-06T07:22:03.495Z,999.97
2017-03-06T07:22:29.064Z,999.97
2017-03-06T07:22:54.645Z,999.97
2017-03-06T07:23:20.221Z,999.96
2017-03-06T07:23:45.781Z,999.96
2017-03-06T07:24:11.354Z,999.99
2017-03-06T07:24:36.923Z,999.97
2017-03-06T07:25:02.495Z,999.97
2017-03-06T07:25:28.945Z,1000
2017-03-06T07:25:54.518Z,999.98
2017-03-06T07:26:20.082Z,999.98
2017-03-06T07:26:45.674Z,999.93
2017-03-06T07:27:11.257Z,999.96
2017-03-06T07:27:36.810Z,999.98
2017-03-06T07:28:02.373Z,999.97
2017-03-06T07:28:27.965Z,1000
2017-03-06T07:28:53.585Z,999.98
2017-03-06T07:29:19.747Z,1000.02
2017-03-06T07:29:44.702Z,999.95
2017-03-06T07:30:10.270Z,999.98
2017-03-06T07:30:35.840Z,999.95
2017-03-06T07:31:01.465Z,999.96
2017-03-06T07:31:27.098Z,999.94
2017-03-06T07:31:52.668Z,999.97
2017-03-06T07:32:18.243Z,999.96
2017-03-06T07:32:44.748Z,999.99
2017-03-06T07:33:09.385Z,999.99
2017-03-06T07:33:34.966Z,999.94
2017-03-06T07:34:00.579Z,999.97
2017-03-06T07:34:26.200Z,999.96
2017-03-06T07:34:51.769Z,999.94
2017-03-06T07:35:17.375Z,999.94
2017-03-06T07:35:43.749Z,999.98
2017-03-06T07:36:08.608Z,999.95
2017-03-06T07:36:34.179Z,999.98
2017-03-06T07:36:59.767Z,999.99
2017-03-06T07:37:26.193Z,999.98
2017-03-06T07:37:51.773Z,999.97
2017-03-06T07:38:17.340Z,999.93
2017-03-06T07:38:42.907Z,999.98
2017-03-06T07:39:08.474Z,999.95
2017-03-06T07:39:34.027Z,999.99
2017-03-06T07:39:59.590Z,999.96
2017-03-06T07:40:25.154Z,999.99
2017-03-06T07:40:50.726Z,1000.02
2017-03-06T07:41:16.311Z,999.98
2017-03-06T07:41:41.883Z,999.99
2017-03-06T07:42:07.485Z,999.95
2017-03-06T07:42:33.061Z,999.98
2017-03-06T07:42:58.618Z,999.95
2017-03-06T07:43:24.205Z,999.97
2017-03-06T07:43:49.790Z,999.96
2017-03-06T07:44:15.354Z,999.96
2017-03-06T07:44:40.988Z,999.92
2017-03-06T07:45:06.552Z,999.96
2017-03-06T07:45:32.121Z,999.93
2017-03-06T07:45:57.770Z,999.99
2017-03-06T07:46:23.335Z,999.94
2017-03-06T07:46:48.908Z,999.98
2017-03-06T07:47:14.481Z,999.93
2017-03-06T07:47:40.020Z,999.96
2017-03-06T07:48:05.680Z,1000.01
2017-03-06T07:48:31.244Z,999.98
2017-03-06T07:48:57.573Z,999.97
2017-03-06T07:49:23.725Z,999.95
2017-03-06T07:49:49.283Z,999.98
2017-03-06T07:50:14.961Z,999.97
2017-03-06T07:50:40.513Z,999.95
2017-03-06T07:51:06.077Z,1000
2017-03-06T07:51:31.657Z,999.93
2017-03-06T07:51:57.250Z,999.97
2017-03-06T07:52:22.803Z,999.99
2017-03-06T07:52:48.361Z,1000
2017-03-06T07:53:13.915Z,999.97
2017-03-06T07:53:39.475Z,999.96
2017-03-06T07:54:05.031Z,999.97
2017-03-06T07:54:30.598Z,1000.02
2017-03-06T07:54:56.154Z,999.96
2017-03-06T07:55:21.726Z,999.98
2017-03-06T07:55:47.325Z,1000
2017-03-06T07:56:12.922Z,999.99
2017-03-06T07:56:38.474Z,999.99
2017-03-06T07:57:04.040Z,1000.02
2017-03-06T07:57:29.611Z,999.98
2017-03-06T07:57:55.185Z,999.96
2017-03-06T07:58:20.734Z,999.99
2017-03-06T07:58:46.314Z,1000
2017-03-06T07:59:11.877Z,999.99
2017-03-06T07:59:37.443Z,999.98
2017-03-06T08:00:03.105Z,999.99
2017-03-06T08:00:28.671Z,1000.02
2017-03-06T08:00:54.238Z,999.99
2017-03-06T08:01:19.821Z,1000.02
2017-03-06T08:01:45.376Z,999.98
2017-03-06T08:02:10.933Z,1000.02
2017-03-06T08:02:36.512Z,1000.01
2017-03-06T08:03:02.077Z,999.99
2017-03-06T08:03:27.630Z,1000.02
2017-03-06T08:03:53.219Z,999.98
2017-03-06T08:04:19.470Z,999.95
2017-03-06T08:04:45.056Z,999.99
2017-03-06T08:05:10.608Z,999.97
2017-03-06T08:05:36.166Z,999.93
2017-03-06T08:06:01.725Z,999.94
2017-03-06T08:06:27.991Z,999.94
2017-03-06T08:06:53.548Z,999.98
2017-03-06T08:07:19.106Z,999.92
2017-03-06T08:07:44.686Z,999.98
2017-03-06T08:08:10.247Z,999.97
2017-03-06T08:08:35.800Z,999.95
2017-03-06T08:09:01.392Z,999.92
2017-03-06T08:09:27.046Z,999.95
2017-03-06T08:09:52.702Z,999.92
2017-03-06T08:10:18.282Z,999.92
2017-03-06T08:10:43.843Z,999.91
2017-03-06T08:11:09.420Z,999.95
2017-03-06T08:11:35.078Z,999.92
2017-03-06T08:12:00.640Z,999.94
2017-03-06T08:12:26.230Z,999.96
2017-03-06T08:12:51.803Z,999.93
2017-03-06T08:13:17.376Z,999.9
2017-03-06T08:13:42.945Z,999.95
2017-03-06T08:14:08.587Z,999.92
2017-03-06T08:14:34.183Z,999.96
2017-03-06T08:14:59.745Z,999.92
2017-03-06T08:15:25.322Z,999.95
2017-03-06T08:15:50.905Z,999.93
2017-03-06T08:16:17.268Z,999.93
2017-03-06T08:16:42.075Z,999.92
2017-03-06T08:17:07.643Z,999.93
2017-03-06T08:17:33.237Z,999.96
2017-03-06T08:17:58.857Z,999.92
2017-03-06T08:18:24.404Z,999.93
2017-03-06T08:18:49.972Z,999.95
2017-03-06T08:19:15.562Z,999.94
2017-03-06T08:19:41.556Z,999.95
2017-03-06T08:20:07.130Z,999.96
2017-03-06T08:20:32.690Z,999.93
2017-03-06T08:20:58.246Z,999.92
2017-03-06T08:21:23.916Z,999.91
2017-03-06T08:21:50.266Z,999.93
2017-03-06T08:22:15.964Z,999.89
2017-03-06T08:22:41.524Z,999.89
2017-03-06T08:23:07.087Z,999.91
2017-03-06T08:23:32.654Z,999.9
2017-03-06T08:23:58.201Z,999.9
2017-03-06T08:24:23.825Z,999.87
2017-03-06T08:24:49.402Z,999.94
2017-03-06T08:25:14.974Z,999.9
2017-03-06T08:25:40.540Z,999.9
2017-03-06T08:26:06.092Z,999.88
2017-03-06T08:26:31.644Z,999.9
2017-03-06T08:26:57.207Z,999.85
2017-03-06T08:27:22.763Z,999.9
2017-03-06T08:27:48.365Z,999.87
2017-03-06T08:28:13.932Z,999.89
2017-03-06T08:28:39.494Z,999.88
2017-03-06T08:29:05.051Z,999.89
2017-03-06T08:29:30.634Z,999.87
2017-03-06T08:29:56.232Z,999.9
2017-03-06T08:30:21.798Z,999.87
2017-03-06T08:30:47.376Z,999.87
2017-03-06T08:31:12.926Z,999.84
2017-03-06T08:31:38.587Z,999.86
2017-03-06T08:32:04.185Z,999.82
2017-03-06T08:32:29.755Z,999.82
2017-03-06T08:32:55.315Z,999.86
2017-03-06T08:33:20.894Z,999.89
2017-03-06T08:33:46.454Z,999.87
2017-03-06T08:34:12.033Z,999.82
2017-03-06T08:34:38.286Z,999.83
2017-03-06T08:35:03.865Z,999.83
2017-03-06T08:35:29.425Z,999.86
2017-03-06T08:35:54.998Z,999.83
2017-03-06T08:36:20.585Z,999.88
2017-03-06T08:36:46.239Z,999.84
2017-03-06T08:37:11.802Z,999.81
2017-03-06T08:37:37.383Z,999.85
2017-03-06T08:38:02.963Z,999.84
2017-03-06T08:38:28.539Z,999.79
2017-03-06T08:38:54.191Z,999.84
2017-03-06T08:39:19.768Z,999.81
2017-03-06T08:39:45.336Z,999.85
2017-03-06T08:40:10.905Z,999.8
2017-03-06T08:40:36.476Z,999.83
2017-03-06T08:41:02.077Z,999.86
2017-03-06T08:41:27.636Z,999.83
2017-03-06T08:41:53.203Z,999.84
2017-03-06T08:42:18.853Z,999.85
2017-03-06T08:42:44.418Z,999.86
2017-03-06T08:43:10.003Z,999.85
2017-03-06T08:43:35.603Z,999.82
2017-03-06T08:44:01.227Z,999.82
2017-03-06T08:44:26.813Z,999.86
2017-03-06T08:44:52.425Z,999.8
2017-03-06T08:45:17.984Z,999.83
2017-03-06T08:45:43.531Z,999.84
2017-03-06T08:46:09.093Z,999.87
2017-03-06T08:46:34.654Z,999.83
2017-03-06T08:47:00.201Z,999.89
2017-03-06T08:47:25.842Z,999.87
2017-03-06T08:47:51.433Z,999.82
2017-03-06T08:48:17.002Z,999.87
2017-03-06T08:48:42.576Z,999.87
2017-03-06T08:49:09.082Z,999.84
2017-03-06T08:49:34.801Z,999.85
2017-03-06T08:50:00.363Z,999.81
2017-03-06T08:50:25.943Z,999.88
2017-03-06T08:50:51.642Z,999.9
2017-03-06T08:51:17.242Z,999.83
2017-03-06T08:51:42.814Z,999.84
2017-03-06T08:52:09.283Z,999.82
2017-03-06T08:52:34.031Z,999.87
2017-03-06T08:52:59.628Z,999.84
2017-03-06T08:53:25.187Z,999.87
2017-03-06T08:53:50.830Z,999.89
2017-03-06T08:54:16.380Z,999.82
2017-03-06T08:54:41.947Z,999.85
2017-03-06T08:55:07.647Z,999.84
2017-03-06T08:55:33.267Z,999.87
2017-03-06T08:55:58.823Z,999.88
2017-03-06T08:56:24.397Z,999.84
2017-03-06T08:56:50.047Z,999.84
2017-03-06T08:57:15.604Z,999.86
2017-03-06T08:57:41.150Z,999.87
2017-03-06T08:58:06.800Z,999.8
2017-03-06T08:58:33.190Z,999.85
2017-03-06T08:58:58.736Z,999.82
2017-03-06T08:59:24.286Z,999.87
2017-03-06T08:59:49.976Z,999.87
2017-03-06T09:00:15.543Z,999.8
2017-03-06T09:00:41.110Z,999.84
2017-03-06T09:01:06.773Z,999.83
2017-03-06T09:01:32.335Z,999.81
2017-03-06T09:01:57.899Z,999.86
2017-03-06T09:02:23.464Z,999.86
2017-03-06T09:02:49.031Z,999.86
2017-03-06T09:03:14.594Z,999.85
2017-03-06T09:03:40.144Z,999.9
2017-03-06T09:04:05.739Z,999.82
2017-03-06T09:04:31.331Z,999.84
2017-03-06T09:04:56.903Z,999.85
2017-03-06T09:05:22.454Z,999.89
2017-03-06T09:05:48.015Z,999.89
2017-03-06T09:06:13.609Z,999.86
2017-03-06T09:06:39.165Z,999.85
2017-03-06T09:07:04.764Z,999.89
2017-03-06T09:07:30.313Z,999.87
2017-03-06T09:07:55.904Z,999.87
2017-03-06T09:08:21.463Z,999.87
2017-03-06T09:08:47.116Z,999.91
2017-03-06T09:09:13.466Z,999.88
2017-03-06T09:09:39.051Z,999.89
2017-03-06T09:10:04.643Z,999.88
2017-03-06T09:10:30.265Z,999.9
2017-03-06T09:10:56.792Z,999.87
2017-03-06T09:11:21.370Z,999.87
2017-03-06T09:12:30.011Z,999.91
2017-03-06T09:14:37.480Z,999.88
2017-03-06T09:15:03.080Z,999.91
2017-03-06T09:15:28.627Z,999.95
2017-03-06T09:15:54.189Z,999.92
2017-03-06T09:16:19.762Z,999.93
2017-03-06T09:16:45.334Z,999.94
2017-03-06T09:17:10.867Z,999.94
2017-03-06T09:17:36.427Z,999.9
2017-03-06T09:18:02.024Z,999.94
2017-03-06T09:18:27.588Z,999.94
2017-03-06T09:18:53.267Z,999.91
2017-03-06T09:19:18.853Z,999.93
2017-03-06T09:19:44.420Z,999.96
2017-03-06T09:20:10.071Z,999.94
2017-03-06T09:20:36.137Z,999.95
2017-03-06T09:21:01.169Z,999.94
2017-03-06T09:21:26.741Z,999.99
2017-03-06T09:21:52.345Z,999.95
2017-03-06T09:22:17.920Z,999.93
2017-03-06T09:22:43.458Z,1000
2017-03-06T09:23:09.006Z,999.95
2017-03-06T09:23:34.650Z,999.95
2017-03-06T09:24:00.222Z,999.99
2017-03-06T09:24:25.804Z,999.97
2017-03-06T09:24:52.138Z,999.97
2017-03-06T09:25:16.952Z,999.96
2017-03-06T09:25:42.525Z,999.97